Arbyrd, Missouri
Current Conditions -  °F | °C
As of 2:53 PM on Saturday 22 Nov 2014 (Local Time) from KHKA Reporting Station
Overcast Overcast  
Wind Chill: 76°   Ceiling: 6000
Heat Index: 76°   Visibility: 10mi
Dew Point: 41°   Wind: 12mph
Humidity: 29%   Direction: 190°S
Pressure: 30.07"   Gusts: NA
Location:  36.05°N, 90.24°W
Report Text: KHKA 222053Z AUTO 19010KT 10SM OVC060 24/05 A3007 RMK AO2 SLP181 T02440050 56029 $
Loading
Personal Weather Stations






























Interactive Weather Map New forecast layout! Learn more

10-Day Weather Forecast

Advertisements
Track Severe Weather on mobile